sensor_id;sensor_type;location;lat;lon;timestamp;temperature;humidity
68719;DHT22;55696;52.138;5.444;2023-06-24T00:00:11;22.60;55.60
68719;DHT22;55696;52.138;5.444;2023-06-24T00:02:39;22.60;55.90
68719;DHT22;55696;52.138;5.444;2023-06-24T00:05:10;22.60;55.90
68719;DHT22;55696;52.138;5.444;2023-06-24T00:07:37;22.50;56.20
68719;DHT22;55696;52.138;5.444;2023-06-24T00:10:12;22.50;56.50
68719;DHT22;55696;52.138;5.444;2023-06-24T00:12:40;22.50;56.60
68719;DHT22;55696;52.138;5.444;2023-06-24T00:15:08;22.40;56.50
68719;DHT22;55696;52.138;5.444;2023-06-24T00:17:38;22.50;56.60
68719;DHT22;55696;52.138;5.444;2023-06-24T00:20:06;22.30;56.60
68719;DHT22;55696;52.138;5.444;2023-06-24T00:22:38;22.40;56.70
68719;DHT22;55696;52.138;5.444;2023-06-24T00:25:10;22.40;56.80
68719;DHT22;55696;52.138;5.444;2023-06-24T00:27:37;22.40;56.90
68719;DHT22;55696;52.138;5.444;2023-06-24T00:30:05;22.20;57.00
68719;DHT22;55696;52.138;5.444;2023-06-24T00:32:32;22.20;57.30
68719;DHT22;55696;52.138;5.444;2023-06-24T00:34:58;22.20;57.50
68719;DHT22;55696;52.138;5.444;2023-06-24T00:37:26;22.20;57.50
68719;DHT22;55696;52.138;5.444;2023-06-24T00:39:54;22.10;57.40
68719;DHT22;55696;52.138;5.444;2023-06-24T00:42:21;22.20;57.50
68719;DHT22;55696;52.138;5.444;2023-06-24T00:44:48;22.20;57.30
68719;DHT22;55696;52.138;5.444;2023-06-24T00:47:16;22.20;57.40
68719;DHT22;55696;52.138;5.444;2023-06-24T00:49:43;22.00;57.30
68719;DHT22;55696;52.138;5.444;2023-06-24T00:52:12;22.10;57.50
68719;DHT22;55696;52.138;5.444;2023-06-24T00:54:43;22.70;57.80
68719;DHT22;55696;52.138;5.444;2023-06-24T00:57:10;22.20;57.40
68719;DHT22;55696;52.138;5.444;2023-06-24T00:59:39;22.10;57.30
68719;DHT22;55696;52.138;5.444;2023-06-24T01:02:06;22.00;57.40
68719;DHT22;55696;52.138;5.444;2023-06-24T01:04:34;21.80;57.20
68719;DHT22;55696;52.138;5.444;2023-06-24T01:07:01;22.00;57.30
68719;DHT22;55696;52.138;5.444;2023-06-24T01:09:28;22.00;57.50
68719;DHT22;55696;52.138;5.444;2023-06-24T01:11:56;21.90;57.50
68719;DHT22;55696;52.138;5.444;2023-06-24T01:14:23;21.90;57.70
68719;DHT22;55696;52.138;5.444;2023-06-24T01:17:13;21.80;57.80
68719;DHT22;55696;52.138;5.444;2023-06-24T01:31:57;21.60;58.20
68719;DHT22;55696;52.138;5.444;2023-06-24T01:34:36;21.50;58.30
68719;DHT22;55696;52.138;5.444;2023-06-24T01:37:25;21.40;58.60
68719;DHT22;55696;52.138;5.444;2023-06-24T01:42:41;21.20;59.10
68719;DHT22;55696;52.138;5.444;2023-06-24T01:45:29;21.10;59.30
68719;DHT22;55696;52.138;5.444;2023-06-24T01:48:11;21.10;59.50
68719;DHT22;55696;52.138;5.444;2023-06-24T01:50:44;21.00;59.50
68719;DHT22;55696;52.138;5.444;2023-06-24T01:53:12;20.90;59.40
68719;DHT22;55696;52.138;5.444;2023-06-24T01:55:41;21.30;59.80
68719;DHT22;55696;52.138;5.444;2023-06-24T01:58:11;21.00;59.50
68719;DHT22;55696;52.138;5.444;2023-06-24T02:00:40;21.00;59.50
68719;DHT22;55696;52.138;5.444;2023-06-24T02:03:08;21.10;59.40
68719;DHT22;55696;52.138;5.444;2023-06-24T02:05:38;21.00;59.50
68719;DHT22;55696;52.138;5.444;2023-06-24T02:08:09;21.00;59.60
68719;DHT22;55696;52.138;5.444;2023-06-24T02:10:40;20.90;59.50
68719;DHT22;55696;52.138;5.444;2023-06-24T02:13:09;21.00;59.60
68719;DHT22;55696;52.138;5.444;2023-06-24T02:15:39;21.00;59.50
68719;DHT22;55696;52.138;5.444;2023-06-24T02:18:08;21.00;59.60
68719;DHT22;55696;52.138;5.444;2023-06-24T02:20:37;21.00;59.50
68719;DHT22;55696;52.138;5.444;2023-06-24T02:23:07;21.40;59.90
68719;DHT22;55696;52.138;5.444;2023-06-24T02:25:35;21.00;59.70
68719;DHT22;55696;52.138;5.444;2023-06-24T02:28:07;20.90;59.70
68719;DHT22;55696;52.138;5.444;2023-06-24T02:30:37;20.90;60.00
68719;DHT22;55696;52.138;5.444;2023-06-24T02:33:05;20.80;60.10
68719;DHT22;55696;52.138;5.444;2023-06-24T02:35:32;20.70;60.10
68719;DHT22;55696;52.138;5.444;2023-06-24T02:37:59;20.60;60.20
68719;DHT22;55696;52.138;5.444;2023-06-24T02:40:27;20.70;60.30
68719;DHT22;55696;52.138;5.444;2023-06-24T02:42:54;20.80;60.50
68719;DHT22;55696;52.138;5.444;2023-06-24T02:45:21;20.80;60.40
68719;DHT22;55696;52.138;5.444;2023-06-24T02:47:49;20.70;60.30
68719;DHT22;55696;52.138;5.444;2023-06-24T02:50:18;20.70;60.30
68719;DHT22;55696;52.138;5.444;2023-06-24T02:52:46;20.70;60.40
68719;DHT22;55696;52.138;5.444;2023-06-24T02:55:17;20.50;60.40
68719;DHT22;55696;52.138;5.444;2023-06-24T02:57:47;20.60;60.60
68719;DHT22;55696;52.138;5.444;2023-06-24T03:00:20;20.60;60.70
68719;DHT22;55696;52.138;5.444;2023-06-24T03:03:17;20.60;60.70
68719;DHT22;55696;52.138;5.444;2023-06-24T03:05:53;20.60;60.70
68719;DHT22;55696;52.138;5.444;2023-06-24T03:08:21;20.50;60.70
68719;DHT22;55696;52.138;5.444;2023-06-24T03:10:59;20.50;60.70
68719;DHT22;55696;52.138;5.444;2023-06-24T03:13:29;20.60;61.00
68719;DHT22;55696;52.138;5.444;2023-06-24T03:16:01;20.50;60.90
68719;DHT22;55696;52.138;5.444;2023-06-24T03:18:32;20.50;61.00
68719;DHT22;55696;52.138;5.444;2023-06-24T03:20:59;20.40;61.00
68719;DHT22;55696;52.138;5.444;2023-06-24T03:23:29;20.50;62.00
68719;DHT22;55696;52.138;5.444;2023-06-24T03:25:57;20.50;61.20
68719;DHT22;55696;52.138;5.444;2023-06-24T03:28:24;20.40;61.20
68719;DHT22;55696;52.138;5.444;2023-06-24T03:31:01;20.40;61.20
68719;DHT22;55696;52.138;5.444;2023-06-24T03:33:28;20.50;61.30
68719;DHT22;55696;52.138;5.444;2023-06-24T03:35:55;20.40;61.30
68719;DHT22;55696;52.138;5.444;2023-06-24T03:38:27;20.40;61.30
68719;DHT22;55696;52.138;5.444;2023-06-24T03:40:55;20.40;61.30
68719;DHT22;55696;52.138;5.444;2023-06-24T03:43:22;20.30;61.20
68719;DHT22;55696;52.138;5.444;2023-06-24T03:45:49;20.30;61.20
68719;DHT22;55696;52.138;5.444;2023-06-24T03:48:17;20.30;61.30
68719;DHT22;55696;52.138;5.444;2023-06-24T03:50:44;20.20;61.30
68719;DHT22;55696;52.138;5.444;2023-06-24T03:53:11;20.30;61.40
68719;DHT22;55696;52.138;5.444;2023-06-24T03:55:38;20.40;61.50
68719;DHT22;55696;52.138;5.444;2023-06-24T03:58:05;20.30;61.50
68719;DHT22;55696;52.138;5.444;2023-06-24T04:00:32;20.20;61.60
68719;DHT22;55696;52.138;5.444;2023-06-24T04:02:59;20.60;61.80
68719;DHT22;55696;52.138;5.444;2023-06-24T04:05:29;20.20;61.70
68719;DHT22;55696;52.138;5.444;2023-06-24T04:07:55;20.30;61.60
68719;DHT22;55696;52.138;5.444;2023-06-24T04:10:22;20.30;61.50
68719;DHT22;55696;52.138;5.444;2023-06-24T04:12:49;20.40;61.50
68719;DHT22;55696;52.138;5.444;2023-06-24T04:15:16;20.30;61.50
68719;DHT22;55696;52.138;5.444;2023-06-24T04:17:43;20.30;62.50
68719;DHT22;55696;52.138;5.444;2023-06-24T04:20:11;20.30;61.70
68719;DHT22;55696;52.138;5.444;2023-06-24T04:22:40;20.40;61.80
68719;DHT22;55696;52.138;5.444;2023-06-24T04:25:08;20.30;61.60
68719;DHT22;55696;52.138;5.444;2023-06-24T04:27:35;20.40;61.60
68719;DHT22;55696;52.138;5.444;2023-06-24T04:30:04;20.40;61.60
68719;DHT22;55696;52.138;5.444;2023-06-24T04:32:31;20.50;61.60
68719;DHT22;55696;52.138;5.444;2023-06-24T04:34:59;20.40;61.40
68719;DHT22;55696;52.138;5.444;2023-06-24T04:37:28;20.50;61.50
68719;DHT22;55696;52.138;5.444;2023-06-24T04:39:57;20.60;61.50
68719;DHT22;55696;52.138;5.444;2023-06-24T04:42:23;20.60;61.40
68719;DHT22;55696;52.138;5.444;2023-06-24T04:44:51;20.50;61.20
68719;DHT22;55696;52.138;5.444;2023-06-24T04:47:18;20.70;61.20
68719;DHT22;55696;52.138;5.444;2023-06-24T04:49:45;20.80;61.00
68719;DHT22;55696;52.138;5.444;2023-06-24T04:52:12;21.10;60.90
68719;DHT22;55696;52.138;5.444;2023-06-24T04:54:39;20.90;60.50
68719;DHT22;55696;52.138;5.444;2023-06-24T04:57:09;21.00;60.30
68719;DHT22;55696;52.138;5.444;2023-06-24T04:59:36;21.10;60.20
68719;DHT22;55696;52.138;5.444;2023-06-24T05:02:04;21.10;60.00
68719;DHT22;55696;52.138;5.444;2023-06-24T05:04:31;21.10;59.70
68719;DHT22;55696;52.138;5.444;2023-06-24T05:06:58;21.20;59.30
68719;DHT22;55696;52.138;5.444;2023-06-24T05:09:25;21.20;59.00
68719;DHT22;55696;52.138;5.444;2023-06-24T05:11:52;21.30;58.70
68719;DHT22;55696;52.138;5.444;2023-06-24T05:14:19;21.40;58.40
68719;DHT22;55696;52.138;5.444;2023-06-24T05:16:46;21.40;58.10
68719;DHT22;55696;52.138;5.444;2023-06-24T05:19:13;21.40;57.70
68719;DHT22;55696;52.138;5.444;2023-06-24T05:21:40;21.40;57.30
68719;DHT22;55696;52.138;5.444;2023-06-24T05:24:07;21.60;57.30
68719;DHT22;55696;52.138;5.444;2023-06-24T05:26:34;21.70;57.00
68719;DHT22;55696;52.138;5.444;2023-06-24T05:29:00;22.40;57.20
68719;DHT22;55696;52.138;5.444;2023-06-24T05:31:27;21.90;56.60
68719;DHT22;55696;52.138;5.444;2023-06-24T05:33:54;21.90;56.20
68719;DHT22;55696;52.138;5.444;2023-06-24T05:36:21;22.00;55.90
68719;DHT22;55696;52.138;5.444;2023-06-24T05:38:48;22.10;55.80
68719;DHT22;55696;52.138;5.444;2023-06-24T05:41:15;22.10;55.50
68719;DHT22;55696;52.138;5.444;2023-06-24T05:43:43;22.20;55.30
68719;DHT22;55696;52.138;5.444;2023-06-24T05:46:10;22.20;55.30
68719;DHT22;55696;52.138;5.444;2023-06-24T05:48:37;22.10;54.90
68719;DHT22;55696;52.138;5.444;2023-06-24T05:51:04;22.40;54.80
68719;DHT22;55696;52.138;5.444;2023-06-24T05:53:31;22.40;54.50
68719;DHT22;55696;52.138;5.444;2023-06-24T05:55:58;22.40;54.40
68719;DHT22;55696;52.138;5.444;2023-06-24T05:58:24;23.10;54.70
68719;DHT22;55696;52.138;5.444;2023-06-24T06:00:51;22.60;54.20
68719;DHT22;55696;52.138;5.444;2023-06-24T06:03:18;22.60;53.90
68719;DHT22;55696;52.138;5.444;2023-06-24T06:05:45;22.70;53.70
68719;DHT22;55696;52.138;5.444;2023-06-24T06:08:12;22.80;53.40
68719;DHT22;55696;52.138;5.444;2023-06-24T06:10:39;22.90;53.30
68719;DHT22;55696;52.138;5.444;2023-06-24T06:13:06;22.80;53.00
68719;DHT22;55696;52.138;5.444;2023-06-24T06:15:33;23.10;53.00
68719;DHT22;55696;52.138;5.444;2023-06-24T06:18:00;23.10;52.50
68719;DHT22;55696;52.138;5.444;2023-06-24T06:20:27;23.50;52.60
68719;DHT22;55696;52.138;5.444;2023-06-24T06:22:54;23.10;52.40
68719;DHT22;55696;52.138;5.444;2023-06-24T06:25:21;23.30;52.30
68719;DHT22;55696;52.138;5.444;2023-06-24T06:27:48;23.50;52.00
68719;DHT22;55696;52.138;5.444;2023-06-24T06:30:15;23.50;51.70
68719;DHT22;55696;52.138;5.444;2023-06-24T06:32:42;23.70;51.50
68719;DHT22;55696;52.138;5.444;2023-06-24T06:35:09;23.70;51.10
68719;DHT22;55696;52.138;5.444;2023-06-24T06:37:36;23.80;51.00
68719;DHT22;55696;52.138;5.444;2023-06-24T06:40:03;23.80;50.50
68719;DHT22;55696;52.138;5.444;2023-06-24T06:42:30;23.80;50.40
68719;DHT22;55696;52.138;5.444;2023-06-24T06:44:57;23.80;50.20
68719;DHT22;55696;52.138;5.444;2023-06-24T06:47:24;23.90;49.90
68719;DHT22;55696;52.138;5.444;2023-06-24T06:49:50;23.90;49.90
68719;DHT22;55696;52.138;5.444;2023-06-24T06:52:17;23.90;49.90
68719;DHT22;55696;52.138;5.444;2023-06-24T06:54:44;24.00;49.80
68719;DHT22;55696;52.138;5.444;2023-06-24T06:57:11;24.10;49.60
68719;DHT22;55696;52.138;5.444;2023-06-24T06:59:38;24.30;49.40
68719;DHT22;55696;52.138;5.444;2023-06-24T07:02:05;24.30;49.30
68719;DHT22;55696;52.138;5.444;2023-06-24T07:04:32;24.40;49.20
68719;DHT22;55696;52.138;5.444;2023-06-24T07:06:59;24.50;49.00
68719;DHT22;55696;52.138;5.444;2023-06-24T07:09:26;24.60;49.30
68719;DHT22;55696;52.138;5.444;2023-06-24T07:11:53;24.70;48.80
68719;DHT22;55696;52.138;5.444;2023-06-24T07:14:20;24.80;48.60
68719;DHT22;55696;52.138;5.444;2023-06-24T07:16:46;24.80;48.50
68719;DHT22;55696;52.138;5.444;2023-06-24T07:19:13;24.90;48.50
68719;DHT22;55696;52.138;5.444;2023-06-24T07:21:40;24.90;48.40
68719;DHT22;55696;52.138;5.444;2023-06-24T07:24:07;25.50;48.70
68719;DHT22;55696;52.138;5.444;2023-06-24T07:26:34;25.10;48.00
68719;DHT22;55696;52.138;5.444;2023-06-24T07:29:01;25.10;47.70
68719;DHT22;55696;52.138;5.444;2023-06-24T07:31:35;25.20;47.60
68719;DHT22;55696;52.138;5.444;2023-06-24T07:34:04;25.30;47.50
68719;DHT22;55696;52.138;5.444;2023-06-24T07:36:31;25.40;47.20
68719;DHT22;55696;52.138;5.444;2023-06-24T07:38:58;25.30;47.10
68719;DHT22;55696;52.138;5.444;2023-06-24T07:41:24;25.50;47.10
68719;DHT22;55696;52.138;5.444;2023-06-24T07:43:51;25.50;46.60
68719;DHT22;55696;52.138;5.444;2023-06-24T07:46:19;25.60;46.50
68719;DHT22;55696;52.138;5.444;2023-06-24T07:48:46;25.60;46.10
68719;DHT22;55696;52.138;5.444;2023-06-24T07:51:13;25.70;46.30
68719;DHT22;55696;52.138;5.444;2023-06-24T07:53:40;25.70;46.20
68719;DHT22;55696;52.138;5.444;2023-06-24T07:56:07;25.90;46.00
68719;DHT22;55696;52.138;5.444;2023-06-24T07:58:34;25.90;45.60
68719;DHT22;55696;52.138;5.444;2023-06-24T08:01:01;26.00;45.20
68719;DHT22;55696;52.138;5.444;2023-06-24T08:03:28;26.00;45.00
68719;DHT22;55696;52.138;5.444;2023-06-24T08:05:55;26.00;44.60
68719;DHT22;55696;52.138;5.444;2023-06-24T08:08:23;26.10;44.60
68719;DHT22;55696;52.138;5.444;2023-06-24T08:10:50;26.10;44.50
68719;DHT22;55696;52.138;5.444;2023-06-24T08:13:16;26.20;44.40
68719;DHT22;55696;52.138;5.444;2023-06-24T08:15:43;26.30;44.00
68719;DHT22;55696;52.138;5.444;2023-06-24T08:18:11;26.30;43.30
68719;DHT22;55696;52.138;5.444;2023-06-24T08:20:38;26.50;43.30
68719;DHT22;55696;52.138;5.444;2023-06-24T08:23:05;26.40;43.30
68719;DHT22;55696;52.138;5.444;2023-06-24T08:25:32;26.50;43.80
68719;DHT22;55696;52.138;5.444;2023-06-24T08:27:59;26.50;43.20
68719;DHT22;55696;52.138;5.444;2023-06-24T08:30:26;26.50;43.10
68719;DHT22;55696;52.138;5.444;2023-06-24T08:32:53;26.60;43.00
68719;DHT22;55696;52.138;5.444;2023-06-24T08:35:20;26.60;43.10
68719;DHT22;55696;52.138;5.444;2023-06-24T08:37:47;26.70;43.10
68719;DHT22;55696;52.138;5.444;2023-06-24T08:40:13;26.80;42.90
68719;DHT22;55696;52.138;5.444;2023-06-24T08:42:42;26.90;42.70
68719;DHT22;55696;52.138;5.444;2023-06-24T08:45:09;27.00;42.40
68719;DHT22;55696;52.138;5.444;2023-06-24T08:47:37;27.10;42.20
68719;DHT22;55696;52.138;5.444;2023-06-24T08:50:07;27.10;42.10
68719;DHT22;55696;52.138;5.444;2023-06-24T08:52:36;27.10;42.10
68719;DHT22;55696;52.138;5.444;2023-06-24T08:55:04;27.10;42.00
68719;DHT22;55696;52.138;5.444;2023-06-24T08:57:33;27.20;41.80
68719;DHT22;55696;52.138;5.444;2023-06-24T08:59:59;27.30;41.80
68719;DHT22;55696;52.138;5.444;2023-06-24T09:02:27;27.40;41.60
68719;DHT22;55696;52.138;5.444;2023-06-24T09:04:54;27.40;41.50
68719;DHT22;55696;52.138;5.444;2023-06-24T09:07:28;27.40;41.30
68719;DHT22;55696;52.138;5.444;2023-06-24T09:09:55;27.30;41.50
68719;DHT22;55696;52.138;5.444;2023-06-24T09:12:24;27.30;41.60
68719;DHT22;55696;52.138;5.444;2023-06-24T09:14:51;27.30;41.90
68719;DHT22;55696;52.138;5.444;2023-06-24T09:17:19;27.30;41.90
68719;DHT22;55696;52.138;5.444;2023-06-24T09:19:50;27.30;43.10
68719;DHT22;55696;52.138;5.444;2023-06-24T09:22:17;27.40;41.90
68719;DHT22;55696;52.138;5.444;2023-06-24T09:24:46;27.50;41.50
68719;DHT22;55696;52.138;5.444;2023-06-24T09:27:15;27.50;41.20
68719;DHT22;55696;52.138;5.444;2023-06-24T09:29:43;27.60;40.90
68719;DHT22;55696;52.138;5.444;2023-06-24T09:32:10;27.70;41.00
68719;DHT22;55696;52.138;5.444;2023-06-24T09:34:37;27.70;40.70
68719;DHT22;55696;52.138;5.444;2023-06-24T09:37:05;27.70;41.90
68719;DHT22;55696;52.138;5.444;2023-06-24T09:39:36;27.70;41.00
68719;DHT22;55696;52.138;5.444;2023-06-24T09:42:05;27.80;40.90
68719;DHT22;55696;52.138;5.444;2023-06-24T09:44:33;27.80;40.70
68719;DHT22;55696;52.138;5.444;2023-06-24T09:47:00;27.90;40.60
68719;DHT22;55696;52.138;5.444;2023-06-24T09:49:28;27.90;40.20
68719;DHT22;55696;52.138;5.444;2023-06-24T09:51:56;28.00;40.60
68719;DHT22;55696;52.138;5.444;2023-06-24T09:54:26;28.10;40.80
68719;DHT22;55696;52.138;5.444;2023-06-24T09:57:02;28.30;40.90
68719;DHT22;55696;52.138;5.444;2023-06-24T09:59:30;28.40;40.40
68719;DHT22;55696;52.138;5.444;2023-06-24T10:02:00;28.40;40.80
68719;DHT22;55696;52.138;5.444;2023-06-24T10:04:29;28.40;40.40
68719;DHT22;55696;52.138;5.444;2023-06-24T10:06:56;28.50;40.40
68719;DHT22;55696;52.138;5.444;2023-06-24T10:09:23;28.50;39.90
68719;DHT22;55696;52.138;5.444;2023-06-24T10:11:50;28.50;40.90
68719;DHT22;55696;52.138;5.444;2023-06-24T10:14:17;28.60;39.20
68719;DHT22;55696;52.138;5.444;2023-06-24T10:16:44;28.60;39.10
68719;DHT22;55696;52.138;5.444;2023-06-24T10:19:19;28.70;39.30
68719;DHT22;55696;52.138;5.444;2023-06-24T10:21:58;28.70;39.30
68719;DHT22;55696;52.138;5.444;2023-06-24T10:24:46;28.70;39.20
68719;DHT22;55696;52.138;5.444;2023-06-24T10:27:18;28.80;38.90
68719;DHT22;55696;52.138;5.444;2023-06-24T10:29:49;28.80;40.00
68719;DHT22;55696;52.138;5.444;2023-06-24T10:32:18;28.90;38.70
68719;DHT22;55696;52.138;5.444;2023-06-24T10:34:56;29.00;38.70
68719;DHT22;55696;52.138;5.444;2023-06-24T10:37:25;29.00;38.50
68719;DHT22;55696;52.138;5.444;2023-06-24T10:39:56;29.10;38.40
68719;DHT22;55696;52.138;5.444;2023-06-24T10:42:30;29.30;38.00
68719;DHT22;55696;52.138;5.444;2023-06-24T10:44:59;29.40;37.80
68719;DHT22;55696;52.138;5.444;2023-06-24T10:47:27;29.60;37.70
68719;DHT22;55696;52.138;5.444;2023-06-24T10:49:54;29.70;37.50
68719;DHT22;55696;52.138;5.444;2023-06-24T10:52:22;29.60;37.80
68719;DHT22;55696;52.138;5.444;2023-06-24T10:54:51;29.60;38.40
68719;DHT22;55696;52.138;5.444;2023-06-24T10:57:24;29.80;38.00
68719;DHT22;55696;52.138;5.444;2023-06-24T10:59:53;29.80;37.60
68719;DHT22;55696;52.138;5.444;2023-06-24T11:02:24;30.00;37.30
68719;DHT22;55696;52.138;5.444;2023-06-24T11:04:53;30.20;36.60
68719;DHT22;55696;52.138;5.444;2023-06-24T11:07:22;30.40;36.20
68719;DHT22;55696;52.138;5.444;2023-06-24T11:12:25;30.30;36.00
68719;DHT22;55696;52.138;5.444;2023-06-24T11:14:59;30.30;36.10
68719;DHT22;55696;52.138;5.444;2023-06-24T11:17:27;30.20;36.20
68719;DHT22;55696;52.138;5.444;2023-06-24T11:19:55;30.20;36.40
68719;DHT22;55696;52.138;5.444;2023-06-24T11:22:23;30.10;37.00
68719;DHT22;55696;52.138;5.444;2023-06-24T11:24:50;30.00;37.30
68719;DHT22;55696;52.138;5.444;2023-06-24T11:27:27;29.90;37.50
68719;DHT22;55696;52.138;5.444;2023-06-24T11:29:56;29.90;37.50
68719;DHT22;55696;52.138;5.444;2023-06-24T11:32:25;29.90;37.90
68719;DHT22;55696;52.138;5.444;2023-06-24T11:35:01;30.00;37.90
68719;DHT22;55696;52.138;5.444;2023-06-24T11:37:31;30.00;37.70
68719;DHT22;55696;52.138;5.444;2023-06-24T11:40:04;29.90;37.50
68719;DHT22;55696;52.138;5.444;2023-06-24T11:42:39;29.90;38.00
68719;DHT22;55696;52.138;5.444;2023-06-24T11:45:09;29.90;37.80
68719;DHT22;55696;52.138;5.444;2023-06-24T11:47:39;30.00;38.00
68719;DHT22;55696;52.138;5.444;2023-06-24T11:50:07;30.40;37.40
68719;DHT22;55696;52.138;5.444;2023-06-24T11:52:45;30.40;36.80
68719;DHT22;55696;52.138;5.444;2023-06-24T11:55:21;30.40;37.00
68719;DHT22;55696;52.138;5.444;2023-06-24T12:02:55;30.00;37.30
68719;DHT22;55696;52.138;5.444;2023-06-24T12:05:33;29.90;38.10
68719;DHT22;55696;52.138;5.444;2023-06-24T12:08:09;29.80;38.10
68719;DHT22;55696;52.138;5.444;2023-06-24T12:10:37;29.70;38.80
68719;DHT22;55696;52.138;5.444;2023-06-24T12:13:05;29.70;39.00
68719;DHT22;55696;52.138;5.444;2023-06-24T12:15:33;29.60;39.10
68719;DHT22;55696;52.138;5.444;2023-06-24T12:18:00;29.50;39.40
68719;DHT22;55696;52.138;5.444;2023-06-24T12:20:29;29.50;39.70
68719;DHT22;55696;52.138;5.444;2023-06-24T12:23:02;29.50;39.50
68719;DHT22;55696;52.138;5.444;2023-06-24T12:25:30;29.60;39.40
68719;DHT22;55696;52.138;5.444;2023-06-24T12:27:57;29.70;39.60
68719;DHT22;55696;52.138;5.444;2023-06-24T12:30:26;29.70;39.50
68719;DHT22;55696;52.138;5.444;2023-06-24T12:32:53;29.70;39.60
68719;DHT22;55696;52.138;5.444;2023-06-24T12:35:21;29.80;39.50
68719;DHT22;55696;52.138;5.444;2023-06-24T12:37:48;29.90;39.50
68719;DHT22;55696;52.138;5.444;2023-06-24T12:40:15;30.10;39.10
68719;DHT22;55696;52.138;5.444;2023-06-24T12:42:42;30.30;38.90
68719;DHT22;55696;52.138;5.444;2023-06-24T12:45:09;30.40;38.50
68719;DHT22;55696;52.138;5.444;2023-06-24T12:47:36;30.50;38.40
68719;DHT22;55696;52.138;5.444;2023-06-24T12:50:03;30.50;38.00
68719;DHT22;55696;52.138;5.444;2023-06-24T12:52:35;30.60;37.80
68719;DHT22;55696;52.138;5.444;2023-06-24T12:55:02;30.70;37.40
68719;DHT22;55696;52.138;5.444;2023-06-24T12:57:30;30.80;37.70
68719;DHT22;55696;52.138;5.444;2023-06-24T12:59:57;30.70;37.50
68719;DHT22;55696;52.138;5.444;2023-06-24T13:02:24;30.70;37.30
68719;DHT22;55696;52.138;5.444;2023-06-24T13:04:51;30.80;37.50
68719;DHT22;55696;52.138;5.444;2023-06-24T13:07:18;30.90;37.40
68719;DHT22;55696;52.138;5.444;2023-06-24T13:09:45;30.90;37.10
68719;DHT22;55696;52.138;5.444;2023-06-24T13:12:12;30.90;36.60
68719;DHT22;55696;52.138;5.444;2023-06-24T13:14:39;30.90;36.70
68719;DHT22;55696;52.138;5.444;2023-06-24T13:17:06;30.80;36.90
68719;DHT22;55696;52.138;5.444;2023-06-24T13:19:33;30.80;36.60
68719;DHT22;55696;52.138;5.444;2023-06-24T13:21:59;30.90;36.50
68719;DHT22;55696;52.138;5.444;2023-06-24T13:24:26;31.00;37.10
68719;DHT22;55696;52.138;5.444;2023-06-24T13:26:53;31.10;36.70
68719;DHT22;55696;52.138;5.444;2023-06-24T13:29:20;31.20;36.60
68719;DHT22;55696;52.138;5.444;2023-06-24T13:31:47;31.30;36.20
68719;DHT22;55696;52.138;5.444;2023-06-24T13:34:14;31.20;35.80
68719;DHT22;55696;52.138;5.444;2023-06-24T13:36:41;31.20;35.70
68719;DHT22;55696;52.138;5.444;2023-06-24T13:39:09;31.00;35.60
68719;DHT22;55696;52.138;5.444;2023-06-24T13:41:39;31.00;35.90
68719;DHT22;55696;52.138;5.444;2023-06-24T13:44:06;31.10;35.90
68719;DHT22;55696;52.138;5.444;2023-06-24T13:46:34;31.10;36.00
68719;DHT22;55696;52.138;5.444;2023-06-24T13:49:01;31.10;36.10
68719;DHT22;55696;52.138;5.444;2023-06-24T13:51:31;31.10;36.00
68719;DHT22;55696;52.138;5.444;2023-06-24T13:53:59;31.20;36.00
68719;DHT22;55696;52.138;5.444;2023-06-24T13:56:26;31.30;35.70
68719;DHT22;55696;52.138;5.444;2023-06-24T13:58:54;31.30;35.90
68719;DHT22;55696;52.138;5.444;2023-06-24T14:01:21;31.40;36.00
68719;DHT22;55696;52.138;5.444;2023-06-24T14:03:49;31.50;36.00
68719;DHT22;55696;52.138;5.444;2023-06-24T14:06:19;31.70;36.50
68719;DHT22;55696;52.138;5.444;2023-06-24T14:08:46;31.90;36.40
68719;DHT22;55696;52.138;5.444;2023-06-24T14:11:14;32.00;35.90
68719;DHT22;55696;52.138;5.444;2023-06-24T14:13:42;32.00;36.90
68719;DHT22;55696;52.138;5.444;2023-06-24T14:16:09;32.20;37.10
68719;DHT22;55696;52.138;5.444;2023-06-24T14:18:37;32.60;36.20
68719;DHT22;55696;52.138;5.444;2023-06-24T14:21:05;32.70;35.00
68719;DHT22;55696;52.138;5.444;2023-06-24T14:23:33;32.70;35.10
68719;DHT22;55696;52.138;5.444;2023-06-24T14:26:00;32.60;34.40
68719;DHT22;55696;52.138;5.444;2023-06-24T14:28:27;32.40;34.70
68719;DHT22;55696;52.138;5.444;2023-06-24T14:30:54;32.30;35.00
68719;DHT22;55696;52.138;5.444;2023-06-24T14:33:21;32.30;35.00
68719;DHT22;55696;52.138;5.444;2023-06-24T14:35:48;32.20;34.70
68719;DHT22;55696;52.138;5.444;2023-06-24T14:38:15;32.20;34.70
68719;DHT22;55696;52.138;5.444;2023-06-24T14:40:42;32.20;34.40
68719;DHT22;55696;52.138;5.444;2023-06-24T14:43:09;32.20;34.60
68719;DHT22;55696;52.138;5.444;2023-06-24T14:45:36;32.60;34.10
68719;DHT22;55696;52.138;5.444;2023-06-24T14:48:03;32.80;34.20
68719;DHT22;55696;52.138;5.444;2023-06-24T14:50:30;33.10;34.10
68719;DHT22;55696;52.138;5.444;2023-06-24T14:52:57;33.70;34.00
68719;DHT22;55696;52.138;5.444;2023-06-24T14:55:24;34.40;33.40
68719;DHT22;55696;52.138;5.444;2023-06-24T14:57:51;34.90;32.60
68719;DHT22;55696;52.138;5.444;2023-06-24T15:00:18;35.00;31.60
68719;DHT22;55696;52.138;5.444;2023-06-24T15:02:45;34.70;31.90
68719;DHT22;55696;52.138;5.444;2023-06-24T15:05:11;34.40;32.40
68719;DHT22;55696;52.138;5.444;2023-06-24T15:07:38;34.10;32.50
68719;DHT22;55696;52.138;5.444;2023-06-24T15:10:06;33.80;32.90
68719;DHT22;55696;52.138;5.444;2023-06-24T15:12:34;33.50;32.90
68719;DHT22;55696;52.138;5.444;2023-06-24T15:15:02;33.10;33.20
68719;DHT22;55696;52.138;5.444;2023-06-24T15:17:29;32.90;34.00
68719;DHT22;55696;52.138;5.444;2023-06-24T15:19:57;32.70;34.50
68719;DHT22;55696;52.138;5.444;2023-06-24T15:22:24;32.60;34.50
68719;DHT22;55696;52.138;5.444;2023-06-24T15:24:51;32.40;34.70
68719;DHT22;55696;52.138;5.444;2023-06-24T15:27:18;32.30;35.00
68719;DHT22;55696;52.138;5.444;2023-06-24T15:29:45;32.10;35.00
68719;DHT22;55696;52.138;5.444;2023-06-24T15:32:11;32.00;35.40
68719;DHT22;55696;52.138;5.444;2023-06-24T15:34:38;31.90;35.80
68719;DHT22;55696;52.138;5.444;2023-06-24T15:37:06;31.90;35.70
68719;DHT22;55696;52.138;5.444;2023-06-24T15:39:32;31.70;35.70
68719;DHT22;55696;52.138;5.444;2023-06-24T15:42:00;31.60;35.90
68719;DHT22;55696;52.138;5.444;2023-06-24T15:44:27;31.60;36.00
68719;DHT22;55696;52.138;5.444;2023-06-24T15:46:54;31.60;36.30
68719;DHT22;55696;52.138;5.444;2023-06-24T15:49:21;31.50;36.90
68719;DHT22;55696;52.138;5.444;2023-06-24T15:51:47;31.40;36.90
68719;DHT22;55696;52.138;5.444;2023-06-24T15:54:14;31.40;36.90
68719;DHT22;55696;52.138;5.444;2023-06-24T15:56:41;31.40;36.90
68719;DHT22;55696;52.138;5.444;2023-06-24T15:59:08;31.40;36.90